Terminal Aerodrome Forecast
Issued by NWS

Home | Current Version | Previous Version | Text Only | Print | Product List | Glossary On
Versions: 1 2 3 4 5 6 7 8 9 10 11 12 13 14 15 16 17 18 19 20 21
000
FTUS42 KKEY 221120
TAFMTH
TAF
KMTH 221120Z 2212/2312 20010G20KT P6SM SCT022 BKN050
     FM230300 22016G24KT P6SM SCT022 OVC050
      TEMPO 2306/2310 26024G34KT 1SM +TSRA BKN022CB OVC050
     FM231000 26018G26KT P6SM SCT022 OVC050=

USA.gov is the U.S. government's official web portal to all federal, state and local government web resources and services.